Ellerslie, Georgia
Current Conditions -  °F | °C
As of 11:51 PM on Monday 20 Oct 2014 (Local Time) from KCSG Reporting Station
Clear Clear  
Wind Chill: 58°   Ceiling: Unl
Heat Index: 58°   Visibility: 10mi
Dew Point: 53°   Wind: 0mph
Humidity: 84%   Direction: NA
Pressure: 30.02"   Gusts: NA
Location:  32.63°N, 84.8°W
Report Text: KCSG 210351Z AUTO 00000KT 10SM CLR 14/12 A3002 RMK AO2 SLP162 T01440117
Loading
Personal Weather Stations






























Interactive Weather Map
Tropical Storm Tracking
New forecast layout! Learn more

10-Day Weather Forecast

Advertisements
Track Severe Weather on mobile